Time;durP1;ratioP1;P1;durP2;ratioP2;P2;SDS_P1;SDS_P2;PMS_P1;PMS_P2;Temp;Humidity;BMP_temperature;BMP_pressure;BME280_temperature;BME280_humidity;BME280_pressure;Samples;Min_cycle;Max_cycle;Signal;HPM_P1;HPM_P2
2022/10/25 00:00:30;;;;;;;6.07;1.70;;;16.60;99.90;;;;;;5989788;24;20398;-86
2022/10/25 00:04:18;;;;;;;2.50;1.63;;;16.50;99.90;;;;;;5951307;24;20404;-86
2022/10/25 00:07:58;;;;;;;3.57;1.73;;;16.50;99.90;;;;;;5955950;24;20396;-84
2022/10/25 00:14:37;;;;;;;4.47;2.07;;;16.40;99.90;;;;;;5918135;24;20798;-85
2022/10/25 00:17:19;;;;;;;4.83;1.53;;;16.30;99.90;;;;;;5911545;24;20441;-84
2022/10/25 00:21:11;;;;;;;5.20;1.60;;;16.30;99.90;;;;;;6266850;22;20495;-84
2022/10/25 00:24:14;;;;;;;;;;;;;;;;;;;;;
2022/10/25 00:27:09;;;;;;;4.83;1.60;;;16.30;99.90;;;;;;6287938;22;20469;-85
2022/10/25 00:30:44;;;;;;;3.80;1.70;;;16.30;99.90;;;;;;6243963;22;20476;-86
2022/10/25 00:34:15;;;;;;;3.90;1.30;;;16.30;99.90;;;;;;6273823;22;20423;-84
2022/10/25 00:37:21;;;;;;;5.13;1.67;;;16.10;99.90;;;;;;6244912;22;20464;-84
2022/10/25 00:40:59;;;;;;;4.83;1.63;;;16.00;99.90;;;;;;6237430;22;20455;-84
2022/10/25 00:44:22;;;;;;;2.63;1.23;;;15.90;99.90;;;;;;6262269;23;20438;-84
2022/10/25 00:47:23;;;;;;;2.87;1.43;;;16.00;99.90;;;;;;6237567;23;20414;-84
2022/10/25 00:58:42;;;;;;;;;;;;;;;;;;;;;
2022/10/25 01:02:34;;;;;;;;;;;;;;;;;;;;;
2022/10/25 01:05:38;;;;;;;3.60;1.10;;;16.30;99.90;;;;;;6213763;23;20524;-86
2022/10/25 01:08:57;;;;;;;3.50;1.53;;;16.30;99.90;;;;;;6158244;23;20424;-84
2022/10/25 01:11:38;;;;;;;;;;;;;;;;;;;;;
2022/10/25 01:19:23;;;;;;;;;;;;;;;;;;;;;
2022/10/25 01:23:31;;;;;;;3.33;1.33;;;15.80;99.90;;;;;;6064403;23;20397;-85
2022/10/25 01:26:48;;;;;;;4.93;1.40;;;16.00;99.90;;;;;;6052128;23;20400;-84
2022/10/25 01:30:19;;;;;;;1.57;1.40;;;16.10;99.90;;;;;;6070054;23;20701;-85
2022/10/25 01:34:05;;;;;;;;;;;;;;;;;;;;;
2022/10/25 01:37:52;;;;;;;;;;;;;;;;;;;;;
2022/10/25 01:41:15;;;;;;;;;;;;;;;;;;;;;
2022/10/25 01:44:26;;;;;;;1.20;1.00;;;16.00;99.90;;;;;;6099930;23;20399;-84
2022/10/25 01:50:52;;;;;;;3.30;1.23;;;15.80;99.90;;;;;;6180357;23;20396;-84
2022/10/25 01:54:29;;;;;;;3.43;1.37;;;15.60;99.90;;;;;;6092557;23;20792;-82
2022/10/25 01:57:25;;;;;;;3.00;1.63;;;15.80;99.90;;;;;;6126902;23;21455;-83
2022/10/25 02:00:52;;;;;;;3.80;1.53;;;15.80;99.90;;;;;;6210152;23;20414;-83
2022/10/25 02:04:32;;;;;;;3.90;1.67;;;16.00;99.90;;;;;;6156796;23;20406;-83
2022/10/25 02:07:36;;;;;;;2.27;1.40;;;15.80;99.90;;;;;;6194299;23;20418;-84
2022/10/25 02:11:20;;;;;;;;;;;;;;;;;;;;;
2022/10/25 02:14:38;;;;;;;2.90;1.27;;;16.00;99.90;;;;;;6156945;23;20517;-83
2022/10/25 02:21:51;;;;;;;4.77;1.30;;;15.90;99.90;;;;;;6106371;23;20392;-84
2022/10/25 02:28:07;;;;;;;4.80;1.37;;;16.10;99.90;;;;;;6098843;23;20423;-84
2022/10/25 02:31:29;;;;;;;;;;;;;;;;;;;;;
2022/10/25 02:34:44;;;;;;;;;;;;;;;;;;;;;
2022/10/25 02:45:17;;;;;;;3.60;1.30;;;15.80;99.90;;;;;;6103719;23;20416;-84
2022/10/25 02:48:05;;;;;;;3.97;1.97;;;15.90;99.90;;;;;;6105136;23;20484;-83
2022/10/25 02:50:47;;;;;;;5.93;1.80;;;15.90;99.90;;;;;;6104088;23;20413;-83
2022/10/25 02:53:22;;;;;;;2.90;1.70;;;15.90;99.90;;;;;;6250831;23;20413;-84
2022/10/25 02:56:25;;;;;;;2.57;1.23;;;15.90;99.90;;;;;;6225787;23;20413;-84
2022/10/25 02:59:20;;;;;;;8.23;1.80;;;15.80;99.90;;;;;;6224390;23;20522;-85
2022/10/25 03:02:12;;;;;;;2.17;1.97;;;15.80;99.90;;;;;;6227041;23;20409;-84
2022/10/25 03:05:02;;;;;;;5.03;1.53;;;15.90;99.90;;;;;;6225394;23;20418;-84
2022/10/25 03:08:20;;;;;;;5.00;1.40;;;15.80;99.90;;;;;;6224943;23;20494;-85
2022/10/25 03:12:05;;;;;;;3.87;1.37;;;15.80;99.90;;;;;;6224291;23;20464;-83
2022/10/25 03:15:09;;;;;;;6.10;1.57;;;15.80;99.90;;;;;;6249685;23;20417;-84
2022/10/25 03:17:40;;;;;;;2.50;1.60;;;15.60;99.90;;;;;;6224208;23;20421;-84
2022/10/25 03:20:08;;;;;;;2.30;1.47;;;15.80;99.90;;;;;;6222175;23;20447;-85
2022/10/25 03:30:06;;;;;;;3.30;1.47;;;16.00;99.90;;;;;;6226547;22;20402;-85
2022/10/25 03:32:54;;;;;;;6.70;1.90;;;16.00;99.90;;;;;;6250116;23;20418;-85
2022/10/25 03:35:40;;;;;;;3.83;1.73;;;15.90;99.90;;;;;;6228673;23;20423;-85
2022/10/25 03:39:12;;;;;;;5.97;1.50;;;15.90;99.90;;;;;;6225991;22;20453;-84
2022/10/25 03:42:22;;;;;;;2.63;1.40;;;15.80;99.90;;;;;;6199048;23;20397;-84
2022/10/25 03:45:39;;;;;;;1.60;1.40;;;15.90;99.90;;;;;;6199846;23;20363;-84
2022/10/25 03:48:59;;;;;;;1.83;1.57;;;16.00;99.90;;;;;;6189299;22;20459;-84
2022/10/25 03:52:00;;;;;;;2.77;1.40;;;16.00;99.90;;;;;;6312734;22;20416;-84
2022/10/25 03:55:14;;;;;;;3.43;1.90;;;15.90;99.90;;;;;;6284983;22;20442;-84
2022/10/25 04:01:37;;;;;;;5.97;2.37;;;15.70;99.90;;;;;;6273976;22;20416;-85
2022/10/25 04:04:49;;;;;;;;;;;;;;;;;;;;;
2022/10/25 04:07:39;;;;;;;3.13;1.50;;;15.50;99.90;;;;;;6281245;22;20405;-85
2022/10/25 04:10:26;;;;;;;8.73;2.47;;;15.40;99.90;;;;;;6256615;22;20430;-84
2022/10/25 04:13:02;;;;;;;4.53;2.10;;;15.40;99.90;;;;;;6255238;22;20409;-84
2022/10/25 04:16:11;;;;;;;3.27;1.70;;;15.40;99.90;;;;;;6279434;22;20905;-84
2022/10/25 04:22:07;;;;;;;;;;;;;;;;;;;;;
2022/10/25 04:25:29;;;;;;;4.90;1.60;;;15.50;99.90;;;;;;6305248;22;20407;-84
2022/10/25 04:28:17;;;;;;;5.27;2.50;;;15.50;99.90;;;;;;6288380;22;21650;-83
2022/10/25 04:31:10;;;;;;;3.37;1.90;;;15.60;99.90;;;;;;6287128;22;20409;-85
2022/10/25 04:37:28;;;;;;;7.50;2.03;;;15.50;99.90;;;;;;6293173;22;20433;-84
2022/10/25 04:40:16;;;;;;;6.93;2.53;;;15.40;99.90;;;;;;6282859;22;20400;-84
2022/10/25 04:43:01;;;;;;;5.40;1.83;;;15.30;99.90;;;;;;6296587;22;20765;-85
2022/10/25 04:46:09;;;;;;;3.23;1.53;;;15.30;99.90;;;;;;6287885;22;20406;-85
2022/10/25 04:48:56;;;;;;;2.77;1.30;;;15.30;99.90;;;;;;6285034;22;20435;-84
2022/10/25 04:51:54;;;;;;;2.87;1.30;;;15.30;99.90;;;;;;6285043;22;20416;-84
2022/10/25 04:55:09;;;;;;;3.70;1.87;;;15.30;99.90;;;;;;6281388;22;20466;-84
2022/10/25 04:57:56;;;;;;;3.10;1.67;;;15.30;99.90;;;;;;6285158;22;20470;-84
2022/10/25 05:00:38;;;;;;;3.10;1.30;;;15.30;99.90;;;;;;6299045;22;20412;-85
2022/10/25 05:03:42;;;;;;;5.00;2.70;;;15.20;99.90;;;;;;6231115;23;20402;-85
2022/10/25 05:06:30;;;;;;;2.40;1.27;;;15.30;99.90;;;;;;6210472;23;20458;-84
2022/10/25 05:09:10;;;;;;;3.07;2.00;;;15.30;99.90;;;;;;6241028;22;20479;-85
2022/10/25 05:11:52;;;;;;;2.00;1.63;;;15.40;99.90;;;;;;6276358;22;20402;-85
2022/10/25 05:14:36;;;;;;;3.90;1.67;;;15.80;99.90;;;;;;6278788;22;20400;-86
2022/10/25 05:17:24;;;;;;;5.23;2.50;;;16.10;99.90;;;;;;6278288;22;20437;-84
2022/10/25 05:20:24;;;;;;;2.77;1.50;;;16.20;99.90;;;;;;6308379;22;20419;-86
2022/10/25 05:23:05;;;;;;;3.07;1.73;;;16.10;99.90;;;;;;6305748;22;20578;-84
2022/10/25 05:26:16;;;;;;;2.60;1.80;;;16.00;99.90;;;;;;6319904;22;20400;-83
2022/10/25 05:28:53;;;;;;;4.67;1.87;;;15.70;99.90;;;;;;6291964;22;20436;-85
2022/10/25 05:32:16;;;;;;;4.03;1.90;;;15.70;99.90;;;;;;6299771;22;20817;-84
2022/10/25 05:35:15;;;;;;;7.70;2.43;;;15.80;99.90;;;;;;6294285;22;20799;-87
2022/10/25 05:37:54;;;;;;;3.07;2.60;;;15.80;99.90;;;;;;6286279;22;20439;-85
2022/10/25 05:41:18;;;;;;;8.90;2.23;;;15.70;99.90;;;;;;6293871;22;20865;-84
2022/10/25 05:43:58;;;;;;;3.43;2.40;;;15.60;99.90;;;;;;6287508;22;20398;-84
2022/10/25 05:46:46;;;;;;;3.70;1.83;;;15.60;99.90;;;;;;6288747;22;20956;-85
2022/10/25 05:49:38;;;;;;;;;;;;;;;;;;;;;
2022/10/25 05:52:55;;;;;;;5.80;3.07;;;15.60;99.90;;;;;;6312006;22;20439;-84
2022/10/25 05:55:43;;;;;;;4.60;2.10;;;15.60;99.90;;;;;;6274952;22;20419;-84
2022/10/25 06:01:54;;;;;;;6.20;3.00;;;15.30;99.90;;;;;;6290907;22;20876;-83
2022/10/25 06:04:33;;;;;;;6.83;2.93;;;15.40;99.90;;;;;;6290351;22;20484;-84
2022/10/25 06:07:56;;;;;;;6.90;2.80;;;15.50;99.90;;;;;;6291201;22;20412;-86
2022/10/25 06:10:37;;;;;;;5.23;2.50;;;15.40;99.90;;;;;;6289232;22;20429;-87
2022/10/25 06:13:37;;;;;;;3.77;2.20;;;15.40;99.90;;;;;;6286021;22;20422;-84
2022/10/25 06:17:01;;;;;;;7.57;3.53;;;15.40;99.90;;;;;;6295084;22;20421;-84
2022/10/25 06:19:49;;;;;;;4.10;2.40;;;15.30;99.90;;;;;;6223106;23;20834;-85
2022/10/25 06:23:10;;;;;;;6.03;2.90;;;15.30;99.90;;;;;;6197395;23;20441;-84
2022/10/25 06:30:07;;;;;;;4.70;2.67;;;15.30;99.90;;;;;;6215064;23;20422;-85
2022/10/25 06:37:14;;;;;;;6.40;3.57;;;15.30;99.90;;;;;;6213068;23;20398;-84
2022/10/25 06:40:34;;;;;;;7.30;3.70;;;15.20;99.90;;;;;;6215535;22;20482;-83
2022/10/25 06:44:13;;;;;;;4.83;2.90;;;15.40;99.90;;;;;;6306392;22;21018;-84
2022/10/25 06:51:44;;;;;;;4.47;2.87;;;15.60;99.90;;;;;;6329147;22;20383;-83
2022/10/25 06:55:07;;;;;;;7.40;3.17;;;15.90;99.90;;;;;;6175604;23;20391;-85
2022/10/25 06:58:11;;;;;;;4.83;2.80;;;16.30;99.90;;;;;;6171715;23;20396;-84
2022/10/25 07:01:59;;;;;;;4.83;2.70;;;16.30;99.90;;;;;;6062583;23;20389;-85
2022/10/25 07:05:02;;;;;;;3.53;2.73;;;16.10;99.90;;;;;;6044041;23;20479;-83
2022/10/25 07:12:36;;;;;;;4.40;3.00;;;16.10;99.90;;;;;;6063967;23;20565;-84
2022/10/25 07:16:35;;;;;;;5.80;2.70;;;16.30;99.90;;;;;;6042195;23;20766;-85
2022/10/25 07:21:44;;;;;;;5.33;4.00;;;16.20;99.90;;;;;;6281638;22;20545;-83
2022/10/25 07:28:12;;;;;;;;;;;;;;;;;;;;;
2022/10/25 07:46:17;;;;;;;;;;;;;;;;;;;;;
2022/10/25 07:53:03;;;;;;;8.63;3.13;;;16.70;99.90;;;;;;6074735;23;20431;-86
2022/10/25 07:56:41;;;;;;;6.33;3.30;;;16.60;99.90;;;;;;6253507;22;20752;-84
2022/10/25 08:00:02;;;;;;;7.60;3.67;;;16.70;99.90;;;;;;6136993;23;20522;-83
2022/10/25 08:03:34;;;;;;;4.07;2.97;;;16.40;99.90;;;;;;6135619;23;20964;-82
2022/10/25 08:07:05;;;;;;;5.20;3.07;;;16.40;99.90;;;;;;6137190;23;20697;-82
2022/10/25 08:20:57;;;;;;;6.87;3.50;;;17.30;99.90;;;;;;6289968;22;20551;-83
2022/10/25 08:35:44;;;;;;;;;;;;;;;;;;;;;
2022/10/25 08:46:43;;;;;;;5.23;3.10;;;17.20;99.90;;;;;;6284973;22;20398;-82
2022/10/25 08:58:21;;;;;;;8.33;3.47;;;17.50;99.90;;;;;;6186379;23;20422;-85
2022/10/25 09:02:04;;;;;;;7.93;3.70;;;17.80;99.90;;;;;;6070098;23;20437;-86
2022/10/25 09:05:50;;;;;;;;;;;;;;;;;;;;;
2022/10/25 09:16:53;;;;;;;6.30;4.03;;;17.90;99.90;;;;;;6065764;23;20443;-84
2022/10/25 09:20:34;;;;;;;;;;;;;;;;;;;;;
2022/10/25 09:31:34;;;;;;;3.90;2.77;;;17.70;99.90;;;;;;6121640;23;20394;-83
2022/10/25 09:46:06;;;;;;;3.33;1.90;;;18.40;99.90;;;;;;6085216;23;20442;-83
2022/10/25 09:49:50;;;;;;;;;;;;;;;;;;;;;
2022/10/25 09:53:28;;;;;;;;;;;;;;;;;;;;;
2022/10/25 09:56:25;;;;;;;3.13;1.50;;;18.70;99.90;;;;;;6009579;23;20847;-82
2022/10/25 10:00:12;;;;;;;2.83;1.40;;;19.20;98.50;;;;;;5969610;24;20498;-83
2022/10/25 10:03:30;;;;;;;;;;;;;;;;;;;;;
2022/10/25 10:06:56;;;;;;;1.50;1.27;;;18.20;99.60;;;;;;5953256;24;20411;-82
2022/10/25 10:10:07;;;;;;;2.73;1.40;;;18.00;99.90;;;;;;6003253;23;20517;-84
2022/10/25 10:13:18;;;;;;;3.33;1.83;;;18.10;99.90;;;;;;6038139;23;20505;-84
2022/10/25 10:16:30;;;;;;;5.20;1.47;;;18.00;99.90;;;;;;6045495;23;20489;-84
2022/10/25 10:19:32;;;;;;;2.47;1.20;;;18.00;99.90;;;;;;6126872;23;20540;-84
2022/10/25 10:37:42;;;;;;;2.00;0.80;;;17.90;99.90;;;;;;6185017;23;20463;-83
2022/10/25 10:41:03;;;;;;;2.57;1.40;;;17.80;99.90;;;;;;6198739;23;20454;-84
2022/10/25 10:43:48;;;;;;;2.90;1.50;;;17.60;99.90;;;;;;6185156;23;20438;-84
2022/10/25 10:46:42;;;;;;;4.33;1.20;;;17.60;99.90;;;;;;6191435;23;20395;-83
2022/10/25 10:50:24;;;;;;;1.87;1.10;;;18.00;99.90;;;;;;6193987;23;20932;-83
2022/10/25 10:53:28;;;;;;;3.80;1.30;;;18.60;99.60;;;;;;6220162;23;20429;-85
2022/10/25 11:00:00;;;;;;;4.90;1.50;;;18.60;98.80;;;;;;6208760;23;20457;-84
2022/10/25 11:15:32;;;;;;;3.13;1.30;;;18.50;99.20;;;;;;6059843;23;20863;-83
2022/10/25 11:18:31;;;;;;;5.00;2.07;;;18.30;99.30;;;;;;5893413;24;20454;-82
2022/10/25 11:22:07;;;;;;;6.10;1.60;;;18.10;99.40;;;;;;6063296;23;20894;-83
2022/10/25 11:25:36;;;;;;;;;;;;;;;;;;;;;
2022/10/25 11:32:15;;;;;;;5.73;1.30;;;18.20;99.20;;;;;;6310002;22;20423;-82
2022/10/25 11:35:21;;;;;;;3.13;1.20;;;19.00;97.80;;;;;;6133105;23;20439;-83
2022/10/25 11:45:42;;;;;;;;;;;;;;;;;;;;;
2022/10/25 11:48:48;;;;;;;2.37;0.97;;;18.50;97.10;;;;;;6066924;23;20546;-86
2022/10/25 11:52:24;;;;;;;;;;;;;;;;;;;;;
2022/10/25 11:59:13;;;;;;;4.13;1.50;;;19.10;95.30;;;;;;6024875;23;20476;-85
2022/10/25 12:02:21;;;;;;;3.50;1.60;;;18.90;95.80;;;;;;6147701;23;20474;-83
2022/10/25 12:05:26;;;;;;;1.20;0.80;;;18.70;96.40;;;;;;6266811;23;20412;-85
2022/10/25 12:08:33;;;;;;;2.00;1.10;;;19.40;95.00;;;;;;6242956;23;20457;-84
2022/10/25 12:11:40;;;;;;;2.03;1.20;;;19.00;95.20;;;;;;6233700;23;20415;-84
2022/10/25 12:15:05;;;;;;;3.40;1.70;;;18.60;96.10;;;;;;6245349;23;20418;-82
2022/10/25 12:22:48;;;;;;;2.50;1.30;;;18.70;96.60;;;;;;6151488;23;20395;-82
2022/10/25 12:30:36;;;;;;;5.80;1.47;;;18.60;96.40;;;;;;6144765;23;20417;-82
2022/10/25 12:34:08;;;;;;;4.43;1.17;;;19.10;95.90;;;;;;6156360;23;20432;-82
2022/10/25 12:37:41;;;;;;;6.00;1.73;;;19.10;95.50;;;;;;6020052;23;20396;-83
2022/10/25 12:45:14;;;;;;;1.20;0.80;;;18.80;95.00;;;;;;5933733;24;20490;-83
2022/10/25 12:48:39;;;;;;;2.33;0.80;;;19.30;94.70;;;;;;5999694;23;20397;-83
2022/10/25 12:59:19;;;;;;;1.50;0.90;;;19.40;93.00;;;;;;6135114;22;20451;-82
2022/10/25 13:03:10;;;;;;;;;;;;;;;;;;;;;
2022/10/25 13:10:10;;;;;;;1.17;0.80;;;18.80;94.10;;;;;;6187993;23;20395;-85
2022/10/25 13:13:37;;;;;;;2.90;0.83;;;19.50;93.30;;;;;;6186965;23;20757;-84
2022/10/25 13:20:57;;;;;;;1.23;0.87;;;19.00;93.70;;;;;;6171076;23;20836;-84
2022/10/25 13:24:09;;;;;;;4.50;1.40;;;19.60;93.20;;;;;;6097285;23;20533;-86
2022/10/25 13:27:54;;;;;;;;;;;;;;;;;;;;;
2022/10/25 13:34:52;;;;;;;;;;;;;;;;;;;;;
2022/10/25 13:55:12;;;;;;;2.90;1.10;;;18.50;95.00;;;;;;5071533;28;20554;-86
2022/10/25 14:27:24;;;;;;;3.73;1.40;;;18.70;94.30;;;;;;4950369;29;20472;-84
2022/10/25 14:35:31;;;;;;;;;;;;;;;;;;;;;
2022/10/25 14:57:35;;;;;;;1.50;0.90;;;19.00;93.00;;;;;;4775524;30;20933;-83
2022/10/25 15:01:23;;;;;;;5.33;1.37;;;18.90;93.20;;;;;;4793156;29;20526;-83
2022/10/25 15:24:30;;;;;;;2.70;1.30;;;18.70;93.30;;;;;;5377020;23;20478;-84
2022/10/25 15:34:45;;;;;;;2.33;1.10;;;18.50;95.50;;;;;;5015045;28;20450;-84
2022/10/25 15:42:12;;;;;;;1.63;1.10;;;18.20;96.10;;;;;;4986947;28;21183;-84
2022/10/25 15:45:44;;;;;;;2.50;1.60;;;18.20;96.00;;;;;;4980896;28;20808;-84
2022/10/25 15:54:53;;;;;;;3.30;1.97;;;18.20;96.60;;;;;;4951037;29;20459;-86
2022/10/25 16:06:37;;;;;;;4.97;2.67;;;18.10;97.10;;;;;;5075431;23;20499;-83
2022/10/25 16:33:30;;;;;;;3.23;2.13;;;17.60;99.10;;;;;;4789843;29;20479;-85
2022/10/25 16:36:06;;;;;;;2.87;1.70;;;17.70;98.20;;;;;;4767157;29;21106;-84
2022/10/25 16:42:24;;;;;;;;;;;;;;;;;;;;;
2022/10/25 16:45:35;;;;;;;3.47;1.87;;;17.50;99.50;;;;;;4925015;29;20473;-84
2022/10/25 16:56:41;;;;;;;3.53;2.03;;;17.40;99.90;;;;;;4865975;29;20452;-83
2022/10/25 17:07:21;;;;;;;4.80;2.83;;;17.20;99.90;;;;;;4828096;29;20470;-83
2022/10/25 17:22:13;;;;;;;6.87;2.53;;;17.40;99.60;;;;;;5037613;28;20424;-85
2022/10/25 17:33:51;;;;;;;3.50;2.23;;;17.70;99.80;;;;;;4864845;29;20913;-85
2022/10/25 17:44:45;;;;;;;4.20;2.33;;;17.50;99.80;;;;;;4956528;28;20592;-84
2022/10/25 17:47:53;;;;;;;4.80;2.33;;;17.50;99.00;;;;;;4954852;28;20459;-83
2022/10/25 17:51:19;;;;;;;4.57;2.70;;;17.20;99.40;;;;;;4938985;28;20488;-83
2022/10/25 17:54:26;;;;;;;3.73;1.80;;;17.20;99.90;;;;;;4956216;29;20471;-84
2022/10/25 18:05:47;;;;;;;3.67;2.40;;;17.20;99.90;;;;;;4940669;28;20475;-85
2022/10/25 18:09:02;;;;;;;4.47;2.53;;;17.00;99.90;;;;;;4993667;28;20543;-83
2022/10/25 18:12:15;;;;;;;2.40;2.20;;;17.00;99.90;;;;;;4983881;28;21004;-86
2022/10/25 18:19:01;;;;;;;;;;;;;;;;;;;;;
2022/10/25 18:34:02;;;;;;;5.17;2.53;;;16.50;99.90;;;;;;4900376;29;20444;-85
2022/10/25 18:37:09;;;;;;;3.47;2.30;;;16.70;99.90;;;;;;4899324;29;20421;-86
2022/10/25 18:40:32;;;;;;;3.37;2.57;;;16.60;99.90;;;;;;4922506;29;20485;-86
2022/10/25 18:43:32;;;;;;;8.33;3.70;;;16.60;99.90;;;;;;4903763;29;20472;-85
2022/10/25 18:47:22;;;;;;;3.80;2.87;;;16.70;99.90;;;;;;4936154;28;20428;-84
2022/10/25 18:50:48;;;;;;;3.70;2.33;;;16.60;99.90;;;;;;4960535;28;20556;-85
2022/10/25 19:01:33;;;;;;;4.37;2.73;;;16.40;99.90;;;;;;4896101;29;20819;-86
2022/10/25 19:08:27;;;;;;;3.20;2.70;;;16.20;99.90;;;;;;4901346;29;20436;-84
2022/10/25 19:26:47;;;;;;;5.53;2.83;;;15.90;99.90;;;;;;4994517;28;20879;-84
2022/10/25 19:30:19;;;;;;;3.90;2.93;;;15.90;99.90;;;;;;4931342;29;20482;-84
2022/10/25 19:33:21;;;;;;;3.93;2.80;;;16.00;99.90;;;;;;4905194;29;20860;-83
2022/10/25 19:37:03;;;;;;;3.27;2.57;;;15.90;99.90;;;;;;4881546;29;20431;-84
2022/10/25 19:40:36;;;;;;;4.53;3.03;;;15.80;99.90;;;;;;4877019;29;20567;-84
2022/10/25 19:43:34;;;;;;;9.00;3.70;;;15.70;99.90;;;;;;4865903;29;21101;-84
2022/10/25 19:46:26;;;;;;;6.57;3.90;;;15.50;99.90;;;;;;4862491;29;20457;-81
2022/10/25 19:49:25;;;;;;;5.20;3.47;;;15.40;99.90;;;;;;4831424;29;20505;-84
2022/10/25 19:52:27;;;;;;;8.17;3.10;;;15.30;99.90;;;;;;4831884;29;20494;-83
2022/10/25 19:55:22;;;;;;;4.03;3.03;;;15.40;99.90;;;;;;4787465;29;20499;-84
2022/10/25 19:58:43;;;;;;;;;;;;;;;;;;;;;
2022/10/25 20:01:46;;;;;;;3.03;2.77;;;15.50;99.90;;;;;;4766011;30;20607;-84
2022/10/25 20:05:27;;;;;;;;;;;;;;;;;;;;;
2022/10/25 20:12:37;;;;;;;5.40;2.70;;;15.40;99.90;;;;;;4756256;30;20437;-84
2022/10/25 20:19:50;;;;;;;5.47;2.83;;;15.30;99.90;;;;;;4831468;29;20479;-85
2022/10/25 20:26:39;;;;;;;4.30;3.50;;;15.30;99.90;;;;;;4914905;29;20481;-84
2022/10/25 20:30:39;;;;;;;;;;;;;;;;;;;;;
2022/10/25 20:33:26;;;;;;;6.03;3.50;;;15.10;99.90;;;;;;4978346;28;22527;-84
2022/10/25 20:37:07;;;;;;;;;;;;;;;;;;;;;
2022/10/25 20:40:56;;;;;;;4.37;3.07;;;14.80;99.90;;;;;;5149698;23;20513;-84
2022/10/25 20:52:21;;;;;;;4.47;4.03;;;14.90;99.90;;;;;;4943181;28;21122;-83
2022/10/25 21:14:44;;;;;;;3.40;3.10;;;14.90;99.90;;;;;;4902559;29;20504;-85
2022/10/25 21:33:55;;;;;;;;;;;;;;;;;;;;;
2022/10/25 21:41:29;;;;;;;;;;;;;;;;;;;;;
2022/10/25 21:48:58;;;;;;;4.80;3.10;;;14.50;99.90;;;;;;4849204;29;20465;-84
2022/10/25 21:51:48;;;;;;;;;;;;;;;;;;;;;
2022/10/25 21:59:24;;;;;;;5.37;2.93;;;14.40;99.90;;;;;;4963500;28;20462;-84
2022/10/25 22:06:37;;;;;;;3.80;2.87;;;14.50;99.90;;;;;;4880634;29;20501;-84
2022/10/25 22:41:52;;;;;;;;;;;;;;;;;;;;;
2022/10/25 22:45:24;;;;;;;3.50;2.20;;;14.50;99.90;;;;;;4894789;29;20561;-83
2022/10/25 22:48:40;;;;;;;5.20;2.60;;;14.40;99.90;;;;;;4873479;29;20475;-84
2022/10/25 22:51:51;;;;;;;2.80;2.27;;;14.40;99.90;;;;;;4881218;29;20499;-84
2022/10/25 22:55:23;;;;;;;2.63;2.43;;;14.50;99.90;;;;;;4889752;29;20472;-84
2022/10/25 22:58:21;;;;;;;9.07;2.73;;;14.50;99.90;;;;;;4852051;29;20456;-81
2022/10/25 23:01:28;;;;;;;3.33;1.93;;;14.50;99.90;;;;;;4857670;29;21003;-84
2022/10/25 23:04:12;;;;;;;3.20;2.17;;;14.50;99.90;;;;;;4839895;29;20463;-84
2022/10/25 23:07:43;;;;;;;;;;;;;;;;;;;;;
2022/10/25 23:11:00;;;;;;;6.33;2.87;;;14.80;99.90;;;;;;4745539;29;20493;-84
2022/10/25 23:14:23;;;;;;;4.27;2.30;;;14.60;99.90;;;;;;4793972;29;20489;-85
2022/10/25 23:17:26;;;;;;;3.70;2.17;;;14.40;99.90;;;;;;4818092;29;20489;-84
2022/10/25 23:20:57;;;;;;;2.90;1.93;;;14.60;99.90;;;;;;4796567;29;20501;-82
2022/10/25 23:24:15;;;;;;;2.40;1.77;;;14.70;99.90;;;;;;4869586;29;20919;-84
2022/10/25 23:27:08;;;;;;;3.37;2.47;;;14.80;99.90;;;;;;4872956;29;20498;-82
2022/10/25 23:30:36;;;;;;;;;;;;;;;;;;;;;
2022/10/25 23:33:40;;;;;;;6.43;2.87;;;14.60;99.90;;;;;;4913269;29;20581;-84
2022/10/25 23:36:39;;;;;;;;;;;;;;;;;;;;;
2022/10/25 23:39:40;;;;;;;7.83;1.80;;;14.80;99.90;;;;;;4935416;28;20656;-84
2022/10/25 23:42:48;;;;;;;5.07;1.80;;;15.00;99.90;;;;;;4919621;29;20664;-83
2022/10/25 23:46:11;;;;;;;2.97;1.83;;;14.90;99.90;;;;;;4932079;29;20513;-84
2022/10/25 23:49:17;;;;;;;2.33;1.60;;;14.80;99.90;;;;;;4791858;29;20583;-84
2022/10/25 23:52:36;;;;;;;3.83;1.57;;;14.70;99.90;;;;;;4814955;29;20467;-84
2022/10/25 23:55:17;;;;;;;2.07;1.87;;;14.80;99.90;;;;;;4770245;29;20487;-84
2022/10/25 23:58:07;;;;;;;1.67;1.30;;;15.00;99.90;;;;;;4806545;29;20506;-82
